createdAt,value
2022-12-28T00:01:20.190Z,11.90
2022-12-28T00:03:48.648Z,11.90
2022-12-28T00:06:17.144Z,11.90
2022-12-28T00:08:45.143Z,11.90
2022-12-28T00:11:26.717Z,11.90
2022-12-28T00:14:00.015Z,11.90
2022-12-28T00:16:34.556Z,11.90
2022-12-28T00:19:04.595Z,11.90
2022-12-28T00:21:32.253Z,11.90
2022-12-28T00:24:00.983Z,11.90
2022-12-28T00:26:30.896Z,11.90
2022-12-28T00:29:04.075Z,11.90
2022-12-28T00:31:33.670Z,11.90
2022-12-28T00:34:02.006Z,11.90
2022-12-28T00:37:09.482Z,11.90
2022-12-28T00:39:17.073Z,11.90
2022-12-28T00:41:44.620Z,11.90
2022-12-28T00:44:12.316Z,11.90
2022-12-28T00:46:39.721Z,11.90
2022-12-28T00:49:07.264Z,11.90
2022-12-28T00:51:34.677Z,11.90
2022-12-28T00:54:02.069Z,11.90
2022-12-28T00:56:29.455Z,11.80
2022-12-28T00:58:58.398Z,11.80
2022-12-28T01:01:27.346Z,11.80
2022-12-28T01:03:59.293Z,11.90
2022-12-28T01:06:28.591Z,11.80
2022-12-28T01:08:56.005Z,11.80
2022-12-28T01:11:25.606Z,11.80
2022-12-28T01:13:56.219Z,11.80
2022-12-28T01:16:33.315Z,11.80
2022-12-28T01:19:03.212Z,11.80
2022-12-28T01:21:33.093Z,11.80
2022-12-28T01:24:02.645Z,11.70
2022-12-28T01:26:32.677Z,11.70
2022-12-28T01:29:00.276Z,11.70
2022-12-28T01:31:27.791Z,11.70
2022-12-28T01:33:55.705Z,11.70
2022-12-28T01:36:26.134Z,11.70
2022-12-28T01:38:59.231Z,11.70
2022-12-28T01:41:28.942Z,11.60
2022-12-28T01:43:56.243Z,11.60
2022-12-28T01:46:45.458Z,11.60
2022-12-28T01:49:16.825Z,11.60
2022-12-28T01:52:05.167Z,11.60
2022-12-28T01:54:43.608Z,11.60
2022-12-28T01:57:11.843Z,11.50
2022-12-28T01:59:43.752Z,11.60
2022-12-28T02:02:14.813Z,11.60
2022-12-28T02:04:43.727Z,11.60
2022-12-28T02:07:15.062Z,11.60
2022-12-28T02:09:44.473Z,11.60
2022-12-28T02:12:33.113Z,11.50
2022-12-28T02:15:01.289Z,11.50
2022-12-28T02:17:30.610Z,11.50
2022-12-28T02:19:58.044Z,11.50
2022-12-28T02:22:52.272Z,11.50
2022-12-28T02:25:50.696Z,11.60
2022-12-28T02:28:55.568Z,11.50
2022-12-28T02:31:36.250Z,11.50
2022-12-28T02:34:21.415Z,11.60
2022-12-28T02:37:16.646Z,11.50
2022-12-28T02:39:51.816Z,11.50
2022-12-28T02:42:20.836Z,11.50
2022-12-28T02:45:07.321Z,11.50
2022-12-28T02:47:53.568Z,11.50
2022-12-28T02:50:22.563Z,11.50
2022-12-28T02:53:24.781Z,11.50
2022-12-28T02:56:17.183Z,11.50
2022-12-28T02:59:21.787Z,11.50
2022-12-28T03:02:40.387Z,11.40
2022-12-28T03:05:14.966Z,11.50
2022-12-28T03:08:17.911Z,11.40
2022-12-28T03:11:09.115Z,11.40
2022-12-28T03:13:56.376Z,11.40
2022-12-28T03:16:32.976Z,11.50
2022-12-28T03:19:24.242Z,11.40
2022-12-28T03:22:14.110Z,11.30
2022-12-28T03:25:04.022Z,11.40
2022-12-28T03:27:52.364Z,11.40
2022-12-28T03:30:41.996Z,11.40
2022-12-28T03:33:11.690Z,11.40
2022-12-28T03:35:55.756Z,11.40
2022-12-28T03:38:33.435Z,11.40
2022-12-28T03:41:13.365Z,11.40
2022-12-28T03:43:50.566Z,11.40
2022-12-28T03:46:31.452Z,11.40
2022-12-28T03:49:00.597Z,11.40
2022-12-28T03:51:31.698Z,11.40
2022-12-28T03:54:03.393Z,11.40
2022-12-28T03:56:31.600Z,11.30
2022-12-28T03:59:01.984Z,11.40
2022-12-28T04:01:38.335Z,11.40
2022-12-28T04:04:05.801Z,11.30
2022-12-28T04:06:33.863Z,11.30
2022-12-28T04:09:01.489Z,11.30
2022-12-28T04:11:31.867Z,11.30
2022-12-28T04:14:03.113Z,11.30
2022-12-28T04:16:35.891Z,11.30
2022-12-28T04:19:04.344Z,11.30
2022-12-28T04:21:32.006Z,11.30
2022-12-28T04:24:00.066Z,11.30
2022-12-28T04:26:27.552Z,11.30
2022-12-28T04:29:00.822Z,11.30
2022-12-28T04:31:31.243Z,11.30
2022-12-28T04:34:04.146Z,11.30
2022-12-28T04:36:34.736Z,11.30
2022-12-28T04:39:03.656Z,11.40
2022-12-28T04:41:31.041Z,11.30
2022-12-28T04:43:58.458Z,11.30
2022-12-28T04:46:25.971Z,11.30
2022-12-28T04:48:53.417Z,11.30
2022-12-28T04:51:25.851Z,11.30
2022-12-28T04:53:54.893Z,11.30
2022-12-28T04:56:23.851Z,11.30
2022-12-28T04:58:59.526Z,11.30
2022-12-28T05:01:27.602Z,11.30
2022-12-28T05:03:59.409Z,11.30
2022-12-28T05:06:28.124Z,11.30
2022-12-28T05:08:57.410Z,11.30
2022-12-28T05:11:27.965Z,11.30
2022-12-28T05:13:56.364Z,11.30
2022-12-28T05:16:26.002Z,11.30
2022-12-28T05:18:54.690Z,11.30
2022-12-28T05:21:24.240Z,11.30
2022-12-28T05:23:52.320Z,11.30
2022-12-28T05:26:26.198Z,11.30
2022-12-28T05:28:54.366Z,11.30
2022-12-28T05:31:23.154Z,11.30
2022-12-28T05:33:51.040Z,11.30
2022-12-28T05:36:21.087Z,11.30
2022-12-28T05:38:48.960Z,11.30
2022-12-28T05:41:21.308Z,11.30
2022-12-28T05:43:49.422Z,11.20
2022-12-28T05:46:28.586Z,11.30
2022-12-28T05:48:56.605Z,11.30
2022-12-28T05:51:27.409Z,11.30
2022-12-28T05:53:55.177Z,11.30
2022-12-28T05:56:25.028Z,11.30
2022-12-28T05:59:06.772Z,11.30
2022-12-28T06:01:37.852Z,11.30
2022-12-28T06:04:08.618Z,11.30
2022-12-28T06:06:36.397Z,11.30
2022-12-28T06:09:04.054Z,11.30
2022-12-28T06:11:31.654Z,11.30
2022-12-28T06:13:59.794Z,11.30
2022-12-28T06:16:30.109Z,11.30
2022-12-28T06:18:58.279Z,11.30
2022-12-28T06:21:31.289Z,11.30
2022-12-28T06:24:00.876Z,11.30
2022-12-28T06:26:30.640Z,11.30
2022-12-28T06:28:58.350Z,11.30
2022-12-28T06:31:31.201Z,11.30
2022-12-28T06:33:59.925Z,11.30
2022-12-28T06:36:28.632Z,11.30
2022-12-28T06:38:57.695Z,11.30
2022-12-28T06:41:26.243Z,11.30
2022-12-28T06:43:54.320Z,11.30
2022-12-28T06:46:23.955Z,11.30
2022-12-28T06:48:51.900Z,11.30
2022-12-28T06:51:21.813Z,11.30
2022-12-28T06:53:50.584Z,11.30
2022-12-28T06:56:24.023Z,11.20
2022-12-28T06:58:56.905Z,11.30
2022-12-28T07:01:40.385Z,11.30
2022-12-28T07:04:09.342Z,11.30
2022-12-28T07:06:42.531Z,11.30
2022-12-28T07:09:13.807Z,11.30
2022-12-28T07:11:42.098Z,11.30
2022-12-28T07:14:09.713Z,11.30
2022-12-28T07:19:03.276Z,11.40
2022-12-28T07:21:36.245Z,11.40
2022-12-28T07:24:04.847Z,11.40
2022-12-28T07:26:34.408Z,11.40
2022-12-28T07:29:03.963Z,11.40
2022-12-28T07:31:39.764Z,11.40
2022-12-28T07:34:11.574Z,11.40
2022-12-28T07:36:39.119Z,11.50
2022-12-28T07:39:06.537Z,11.50
2022-12-28T07:41:36.186Z,11.50
2022-12-28T07:44:06.352Z,11.60
2022-12-28T07:46:35.635Z,11.70
2022-12-28T07:49:03.329Z,11.90
2022-12-28T07:51:33.104Z,12.10
2022-12-28T07:54:01.171Z,12.40
2022-12-28T07:56:29.645Z,12.50
2022-12-28T07:59:02.130Z,12.80
2022-12-28T08:01:32.268Z,13.90
2022-12-28T08:04:01.913Z,15.00
2022-12-28T08:06:30.785Z,15.70
2022-12-28T08:09:02.028Z,15.90
2022-12-28T08:11:32.096Z,15.50
2022-12-28T08:14:00.543Z,14.90
2022-12-28T08:16:30.880Z,14.50
2022-12-28T08:18:58.437Z,14.40
2022-12-28T08:21:31.087Z,14.30
2022-12-28T08:23:59.189Z,14.10
2022-12-28T08:26:35.670Z,14.50
2022-12-28T08:29:06.087Z,13.90
2022-12-28T08:31:39.720Z,14.50
2022-12-28T08:34:09.102Z,14.90
2022-12-28T08:36:36.806Z,15.60
2022-12-28T08:39:04.633Z,16.20
2022-12-28T08:41:32.304Z,16.60
2022-12-28T08:43:59.817Z,16.50
2022-12-28T08:46:29.772Z,16.00
2022-12-28T08:48:58.742Z,15.60
2022-12-28T08:51:26.094Z,15.50
2022-12-28T08:53:53.781Z,15.20
2022-12-28T08:56:29.194Z,15.90
2022-12-28T08:58:57.403Z,16.40
2022-12-28T09:01:40.779Z,16.20
2022-12-28T09:04:20.703Z,16.00
2022-12-28T09:06:49.044Z,14.70
2022-12-28T09:09:19.197Z,14.20
2022-12-28T09:11:47.330Z,13.60
2022-12-28T09:14:24.509Z,13.40
2022-12-28T09:16:55.210Z,13.30
2022-12-28T09:19:23.276Z,13.20
2022-12-28T09:21:53.141Z,13.10
2022-12-28T09:24:21.839Z,13.20
2022-12-28T09:26:52.532Z,13.30
2022-12-28T09:29:20.030Z,13.20
2022-12-28T09:31:47.357Z,13.10
2022-12-28T09:37:03.247Z,12.80
2022-12-28T09:39:30.779Z,12.60
2022-12-28T09:42:12.273Z,12.50
2022-12-28T09:44:59.581Z,12.40
2022-12-28T09:47:35.775Z,12.40
2022-12-28T09:50:11.951Z,12.30
2022-12-28T09:53:03.959Z,12.30
2022-12-28T09:55:36.500Z,12.40
2022-12-28T09:58:06.077Z,12.30
2022-12-28T10:00:43.722Z,12.30
2022-12-28T10:03:38.598Z,12.30
2022-12-28T10:06:15.704Z,12.30
2022-12-28T10:08:49.020Z,12.70
2022-12-28T10:11:23.623Z,12.60
2022-12-28T10:13:56.690Z,12.30
2022-12-28T10:16:28.385Z,12.40
2022-12-28T10:18:56.087Z,12.30
2022-12-28T10:21:32.366Z,12.40
2022-12-28T10:26:48.544Z,12.50
2022-12-28T10:29:22.563Z,12.50
2022-12-28T10:32:09.149Z,12.40
2022-12-28T10:34:37.284Z,12.50
2022-12-28T10:37:16.684Z,12.50
2022-12-28T10:39:54.938Z,12.50
2022-12-28T10:42:50.738Z,12.60
2022-12-28T10:45:25.208Z,12.60
2022-12-28T10:47:54.380Z,12.60
2022-12-28T10:50:41.481Z,12.60
2022-12-28T10:53:32.887Z,12.60
2022-12-28T10:56:12.342Z,12.60
2022-12-28T10:58:42.983Z,12.90
2022-12-28T11:01:13.301Z,12.90
2022-12-28T11:04:00.788Z,12.80
2022-12-28T11:06:49.950Z,12.80
2022-12-28T11:09:37.613Z,12.80
2022-12-28T11:12:25.894Z,12.90
2022-12-28T11:14:54.258Z,12.90
2022-12-28T11:17:25.053Z,13.00
2022-12-28T11:19:55.624Z,13.00
2022-12-28T11:22:26.217Z,13.10
2022-12-28T11:24:54.445Z,13.00
2022-12-28T11:27:23.567Z,13.00
2022-12-28T11:29:54.024Z,13.10
2022-12-28T11:32:44.005Z,13.40
2022-12-28T11:35:29.729Z,14.20
2022-12-28T11:38:02.800Z,14.90
2022-12-28T11:40:48.882Z,15.80
2022-12-28T11:43:28.395Z,16.00
2022-12-28T11:46:00.719Z,16.30
2022-12-28T11:48:43.448Z,16.50
2022-12-28T11:51:18.983Z,16.80
2022-12-28T11:53:46.310Z,17.00
2022-12-28T11:56:15.773Z,17.20
2022-12-28T11:58:45.689Z,17.30
2022-12-28T12:01:28.482Z,17.10
2022-12-28T12:03:58.662Z,16.70
2022-12-28T12:06:44.941Z,16.60
2022-12-28T12:09:21.594Z,16.40
2022-12-28T12:11:51.077Z,16.10
2022-12-28T12:14:32.418Z,16.50
2022-12-28T12:17:05.639Z,16.60
2022-12-28T12:19:37.842Z,16.30
2022-12-28T12:22:35.038Z,16.50
2022-12-28T12:25:09.431Z,17.10
2022-12-28T12:27:44.686Z,17.00
2022-12-28T12:30:19.807Z,16.70
2022-12-28T12:33:02.310Z,16.90
2022-12-28T12:35:34.768Z,17.10
2022-12-28T12:38:27.854Z,17.30
2022-12-28T12:41:38.860Z,17.40
2022-12-28T12:44:38.644Z,16.70
2022-12-28T12:47:24.851Z,16.20
2022-12-28T12:50:29.095Z,16.10
2022-12-28T12:53:22.949Z,15.90
2022-12-28T12:56:04.638Z,15.80
2022-12-28T12:58:37.796Z,15.60
2022-12-28T13:01:30.500Z,15.50
2022-12-28T13:04:09.123Z,15.40
2022-12-28T13:06:39.618Z,15.60
2022-12-28T13:09:09.859Z,15.80
2022-12-28T13:11:38.780Z,16.00
2022-12-28T13:14:06.898Z,16.00
2022-12-28T13:16:34.347Z,15.80
2022-12-28T13:19:07.337Z,15.60
2022-12-28T13:21:43.951Z,15.40
2022-12-28T13:24:38.954Z,15.50
2022-12-28T13:27:18.693Z,15.70
2022-12-28T13:29:52.293Z,15.60
2022-12-28T13:32:39.446Z,15.50
2022-12-28T13:35:21.287Z,15.60
2022-12-28T13:38:08.877Z,15.60
2022-12-28T13:40:38.920Z,15.60
2022-12-28T13:43:34.069Z,15.40
2022-12-28T13:46:08.199Z,15.20
2022-12-28T13:48:40.064Z,15.00
2022-12-28T13:51:14.181Z,15.20
2022-12-28T13:53:45.839Z,15.30
2022-12-28T13:56:16.490Z,15.30
2022-12-28T13:58:57.927Z,15.10
2022-12-28T14:01:30.817Z,15.10
2022-12-28T14:04:33.688Z,14.90
2022-12-28T14:06:51.110Z,14.80
2022-12-28T14:09:20.964Z,14.80
2022-12-28T14:11:49.428Z,14.70
2022-12-28T14:14:17.701Z,14.50
2022-12-28T14:16:45.760Z,14.50
2022-12-28T14:19:13.503Z,14.50
2022-12-28T14:21:45.103Z,14.40
2022-12-28T14:24:14.862Z,14.40
2022-12-28T14:26:58.040Z,14.30
2022-12-28T14:29:31.553Z,14.20
2022-12-28T14:32:12.326Z,14.10
2022-12-28T14:34:39.732Z,14.00
2022-12-28T14:37:21.793Z,13.90
2022-12-28T14:39:49.591Z,13.90
2022-12-28T14:42:27.408Z,13.80
2022-12-28T14:44:56.764Z,13.80
2022-12-28T14:47:46.569Z,13.80
2022-12-28T14:50:28.190Z,13.80
2022-12-28T14:53:18.264Z,13.70
2022-12-28T14:55:57.837Z,13.60
2022-12-28T14:58:28.870Z,13.60
2022-12-28T15:01:02.549Z,13.50
2022-12-28T15:03:30.814Z,13.50
2022-12-28T15:05:59.508Z,13.50
2022-12-28T15:08:30.195Z,13.40
2022-12-28T15:11:01.155Z,13.40
2022-12-28T15:13:28.579Z,13.30
2022-12-28T15:16:01.546Z,13.20
2022-12-28T15:18:30.844Z,13.20
2022-12-28T15:21:03.852Z,13.10
2022-12-28T15:23:31.261Z,13.10
2022-12-28T15:25:58.700Z,13.00
2022-12-28T15:28:26.054Z,12.90
2022-12-28T15:30:53.468Z,12.90
2022-12-28T15:33:20.848Z,12.80
2022-12-28T15:35:48.219Z,12.80
2022-12-28T15:38:15.537Z,12.70
2022-12-28T15:40:43.223Z,12.80
2022-12-28T15:43:10.625Z,12.70
2022-12-28T15:45:37.934Z,12.60
2022-12-28T15:48:06.264Z,12.60
2022-12-28T15:50:33.608Z,12.60
2022-12-28T15:53:00.924Z,12.60
2022-12-28T15:55:28.378Z,12.50
2022-12-28T15:57:55.810Z,12.50
2022-12-28T16:00:23.226Z,12.50
2022-12-28T16:02:50.802Z,12.40
2022-12-28T16:05:18.397Z,12.40
2022-12-28T16:07:45.760Z,12.30
2022-12-28T16:10:13.433Z,12.30
2022-12-28T16:12:40.930Z,12.30
2022-12-28T16:15:08.836Z,12.30
2022-12-28T16:17:44.132Z,12.20
2022-12-28T16:20:17.429Z,12.20
2022-12-28T16:22:45.087Z,12.20
2022-12-28T16:25:12.571Z,12.20
2022-12-28T16:27:39.905Z,12.10
2022-12-28T16:30:07.714Z,12.00
2022-12-28T16:32:34.982Z,12.00
2022-12-28T16:35:02.334Z,12.00
2022-12-28T16:37:29.742Z,12.00
2022-12-28T16:39:57.084Z,12.00
2022-12-28T16:42:24.475Z,12.00
2022-12-28T16:44:51.904Z,12.00
2022-12-28T16:47:19.247Z,11.90
2022-12-28T16:49:46.627Z,11.90
2022-12-28T16:52:14.817Z,11.90
2022-12-28T16:54:42.233Z,11.90
2022-12-28T16:57:09.488Z,11.80
2022-12-28T16:59:36.885Z,11.80
2022-12-28T17:02:05.489Z,11.80
2022-12-28T17:04:33.008Z,11.70
2022-12-28T17:07:00.419Z,11.80
2022-12-28T17:09:27.768Z,11.80
2022-12-28T17:11:55.151Z,11.70
2022-12-28T17:14:36.804Z,11.70
2022-12-28T17:17:06.704Z,11.60
2022-12-28T17:19:34.781Z,11.70
2022-12-28T17:22:02.621Z,11.60
2022-12-28T17:24:30.049Z,11.70
2022-12-28T17:27:03.476Z,11.60
2022-12-28T17:29:34.809Z,11.60
2022-12-28T17:32:02.261Z,11.60
2022-12-28T17:34:29.697Z,11.50
2022-12-28T17:36:57.063Z,11.50
2022-12-28T17:39:25.104Z,11.40
2022-12-28T17:41:52.403Z,11.40
2022-12-28T17:44:19.741Z,11.50
2022-12-28T17:46:47.054Z,11.40
2022-12-28T17:49:15.674Z,11.40
2022-12-28T17:51:44.542Z,11.30
2022-12-28T17:54:14.394Z,11.30
2022-12-28T17:56:43.024Z,11.20
2022-12-28T17:59:15.281Z,11.20
2022-12-28T18:01:43.237Z,11.20
2022-12-28T18:04:12.104Z,11.10
2022-12-28T18:06:40.025Z,11.10
2022-12-28T18:09:07.718Z,11.20
2022-12-28T18:11:35.080Z,11.60
2022-12-28T18:14:02.415Z,11.80
2022-12-28T18:16:29.776Z,12.00
2022-12-28T18:18:57.171Z,12.10
2022-12-28T18:21:25.047Z,12.10
2022-12-28T18:23:52.801Z,12.20
2022-12-28T18:26:22.631Z,12.20
2022-12-28T18:28:50.022Z,12.20
2022-12-28T18:31:17.552Z,12.20
2022-12-28T18:33:44.978Z,12.20
2022-12-28T18:36:17.431Z,12.20
2022-12-28T18:38:46.804Z,12.20
2022-12-28T18:41:16.311Z,12.20
2022-12-28T18:43:44.296Z,12.20
2022-12-28T18:46:11.940Z,12.20
2022-12-28T18:48:40.898Z,12.20
2022-12-28T18:51:09.802Z,12.20
2022-12-28T18:53:38.134Z,12.20
2022-12-28T18:56:23.674Z,12.20
2022-12-28T18:58:56.255Z,12.20
2022-12-28T19:02:04.785Z,12.20
2022-12-28T19:04:14.393Z,12.20
2022-12-28T19:06:42.737Z,12.20
2022-12-28T19:09:11.412Z,12.20
2022-12-28T19:11:41.275Z,12.20
2022-12-28T19:14:12.420Z,12.20
2022-12-28T19:16:40.134Z,12.20
2022-12-28T19:19:07.714Z,12.20
2022-12-28T19:21:37.531Z,12.20
2022-12-28T19:24:10.283Z,12.20
2022-12-28T19:26:37.781Z,12.20
2022-12-28T19:29:06.010Z,12.20
2022-12-28T19:31:34.467Z,12.20
2022-12-28T19:34:01.947Z,12.20
2022-12-28T19:36:29.803Z,12.20
2022-12-28T19:38:57.945Z,12.20
2022-12-28T19:41:25.742Z,12.20
2022-12-28T19:43:53.347Z,12.20
2022-12-28T19:46:23.360Z,12.20
2022-12-28T19:48:53.984Z,12.20
2022-12-28T19:51:27.110Z,12.20
2022-12-28T19:53:57.549Z,12.20
2022-12-28T19:56:24.934Z,12.20
2022-12-28T19:58:55.400Z,12.20
2022-12-28T20:01:28.684Z,12.20
2022-12-28T20:03:56.635Z,12.20
2022-12-28T20:06:29.576Z,12.20
2022-12-28T20:09:01.201Z,12.20
2022-12-28T20:11:29.662Z,12.20
2022-12-28T20:14:02.526Z,12.20
2022-12-28T20:16:32.185Z,12.20
2022-12-28T20:19:01.580Z,12.20
2022-12-28T20:21:29.038Z,12.20
2022-12-28T20:23:56.525Z,12.20
2022-12-28T20:26:28.905Z,12.30
2022-12-28T20:29:01.476Z,12.30
2022-12-28T20:31:29.804Z,12.30
2022-12-28T20:33:57.538Z,12.30
2022-12-28T20:36:27.366Z,12.20
2022-12-28T20:38:56.080Z,12.30
2022-12-28T20:41:49.810Z,12.20
2022-12-28T20:44:28.314Z,12.20
2022-12-28T20:46:56.823Z,12.20
2022-12-28T20:49:26.024Z,12.20
2022-12-28T20:51:53.824Z,12.20
2022-12-28T20:54:22.006Z,12.20
2022-12-28T20:56:54.794Z,12.20
2022-12-28T20:59:24.696Z,12.20
2022-12-28T21:01:52.401Z,12.20
2022-12-28T21:04:19.867Z,12.20
2022-12-28T21:06:47.347Z,12.20
2022-12-28T21:09:14.751Z,12.20
2022-12-28T21:11:42.068Z,12.20
2022-12-28T21:14:09.470Z,12.20
2022-12-28T21:16:36.940Z,12.20
2022-12-28T21:19:04.458Z,12.20
2022-12-28T21:21:31.936Z,12.20
2022-12-28T21:24:01.391Z,12.20
2022-12-28T21:26:28.796Z,12.20
2022-12-28T21:28:56.151Z,12.20
2022-12-28T21:31:23.630Z,12.20
2022-12-28T21:33:55.802Z,12.20
2022-12-28T21:36:23.171Z,12.40
2022-12-28T21:38:51.250Z,12.60
2022-12-28T21:41:39.980Z,12.50
2022-12-28T21:44:09.802Z,12.40
2022-12-28T21:46:37.367Z,12.40
2022-12-28T21:49:05.316Z,12.30
2022-12-28T21:51:35.849Z,12.30
2022-12-28T21:54:18.260Z,12.30
2022-12-28T21:56:49.354Z,12.40
2022-12-28T21:59:16.715Z,12.40
2022-12-28T22:02:02.970Z,12.30
2022-12-28T22:04:49.269Z,12.30
2022-12-28T22:07:19.186Z,12.30
2022-12-28T22:10:05.709Z,12.30
2022-12-28T22:12:37.006Z,12.20
2022-12-28T22:15:37.950Z,12.20
2022-12-28T22:18:08.339Z,12.30
2022-12-28T22:20:37.474Z,12.40
2022-12-28T22:23:06.253Z,12.30
2022-12-28T22:25:33.986Z,12.30
2022-12-28T22:28:01.965Z,12.20
2022-12-28T22:30:31.053Z,12.20
2022-12-28T22:32:58.398Z,12.20
2022-12-28T22:35:26.000Z,12.20
2022-12-28T22:37:53.452Z,12.20
2022-12-28T22:40:22.559Z,12.20
2022-12-28T22:42:50.833Z,12.20
2022-12-28T22:45:20.593Z,12.20
2022-12-28T22:47:48.140Z,12.10
2022-12-28T22:50:17.443Z,12.20
2022-12-28T22:52:45.799Z,12.20
2022-12-28T22:55:13.643Z,12.20
2022-12-28T22:57:41.053Z,12.10
2022-12-28T23:00:12.254Z,12.10
2022-12-28T23:02:39.720Z,12.10
2022-12-28T23:05:07.553Z,12.10
2022-12-28T23:07:36.299Z,12.10
2022-12-28T23:10:04.408Z,12.20
2022-12-28T23:12:31.893Z,12.20
2022-12-28T23:15:18.900Z,12.20
2022-12-28T23:17:48.382Z,12.10
2022-12-28T23:20:34.467Z,12.20
2022-12-28T23:23:20.500Z,12.20
2022-12-28T23:26:06.481Z,12.20
2022-12-28T23:28:36.047Z,12.10
2022-12-28T23:31:04.136Z,12.20
2022-12-28T23:33:31.598Z,12.20
2022-12-28T23:36:03.097Z,12.20
2022-12-28T23:38:32.496Z,12.20
2022-12-28T23:41:23.205Z,12.10
2022-12-28T23:43:50.544Z,12.10
2022-12-28T23:46:18.025Z,12.10
2022-12-28T23:48:45.411Z,12.20
2022-12-28T23:51:12.742Z,12.10
2022-12-28T23:53:40.144Z,12.10
2022-12-28T23:56:08.155Z,12.10
2022-12-28T23:58:35.492Z,12.20
